sensor_id;sensor_type;location;lat;lon;timestamp;temperature;humidity
13164;DHT22;6647;53.688;10.746;2022-07-24T00:00:57;14.70;1.00
13164;DHT22;6647;53.688;10.746;2022-07-24T00:02:19;14.60;1.00
13164;DHT22;6647;53.688;10.746;2022-07-24T00:03:41;14.60;1.00
13164;DHT22;6647;53.688;10.746;2022-07-24T00:05:02;14.60;1.00
13164;DHT22;6647;53.688;10.746;2022-07-24T00:06:23;14.50;1.00
13164;DHT22;6647;53.688;10.746;2022-07-24T00:07:44;14.50;1.00
13164;DHT22;6647;53.688;10.746;2022-07-24T00:09:05;14.50;1.00
13164;DHT22;6647;53.688;10.746;2022-07-24T00:10:26;14.50;1.00
13164;DHT22;6647;53.688;10.746;2022-07-24T00:11:47;14.40;1.00
13164;DHT22;6647;53.688;10.746;2022-07-24T00:13:08;14.40;1.00
13164;DHT22;6647;53.688;10.746;2022-07-24T00:14:29;14.40;1.00
13164;DHT22;6647;53.688;10.746;2022-07-24T00:15:50;14.30;1.00
13164;DHT22;6647;53.688;10.746;2022-07-24T00:17:11;14.30;1.00
13164;DHT22;6647;53.688;10.746;2022-07-24T00:18:32;14.30;1.00
13164;DHT22;6647;53.688;10.746;2022-07-24T00:19:53;14.30;1.00
13164;DHT22;6647;53.688;10.746;2022-07-24T00:21:14;14.30;1.00
13164;DHT22;6647;53.688;10.746;2022-07-24T00:22:35;14.30;1.00
13164;DHT22;6647;53.688;10.746;2022-07-24T00:23:58;14.30;1.00
13164;DHT22;6647;53.688;10.746;2022-07-24T00:25:19;14.30;1.00
13164;DHT22;6647;53.688;10.746;2022-07-24T00:26:40;14.30;1.00
13164;DHT22;6647;53.688;10.746;2022-07-24T00:28:01;14.30;1.00
13164;DHT22;6647;53.688;10.746;2022-07-24T00:29:22;14.30;1.00
13164;DHT22;6647;53.688;10.746;2022-07-24T00:30:43;14.30;1.00
13164;DHT22;6647;53.688;10.746;2022-07-24T00:32:04;14.30;1.00
13164;DHT22;6647;53.688;10.746;2022-07-24T00:33:25;14.30;1.00
13164;DHT22;6647;53.688;10.746;2022-07-24T00:34:46;14.30;1.00
13164;DHT22;6647;53.688;10.746;2022-07-24T00:36:07;14.30;1.00
13164;DHT22;6647;53.688;10.746;2022-07-24T00:37:28;14.30;1.00
13164;DHT22;6647;53.688;10.746;2022-07-24T00:38:49;14.30;1.00
13164;DHT22;6647;53.688;10.746;2022-07-24T00:40:10;14.30;1.00
13164;DHT22;6647;53.688;10.746;2022-07-24T00:41:31;14.30;1.00
13164;DHT22;6647;53.688;10.746;2022-07-24T00:42:52;14.30;1.00
13164;DHT22;6647;53.688;10.746;2022-07-24T00:44:15;14.30;1.00
13164;DHT22;6647;53.688;10.746;2022-07-24T00:45:36;14.30;1.00
13164;DHT22;6647;53.688;10.746;2022-07-24T00:46:57;14.30;1.00
13164;DHT22;6647;53.688;10.746;2022-07-24T00:48:18;14.30;1.00
13164;DHT22;6647;53.688;10.746;2022-07-24T00:49:39;14.30;1.00
13164;DHT22;6647;53.688;10.746;2022-07-24T00:50:59;14.30;1.00
13164;DHT22;6647;53.688;10.746;2022-07-24T00:52:20;14.30;1.00
13164;DHT22;6647;53.688;10.746;2022-07-24T00:53:41;14.30;1.00
13164;DHT22;6647;53.688;10.746;2022-07-24T00:55:03;14.30;1.00
13164;DHT22;6647;53.688;10.746;2022-07-24T00:56:25;14.30;1.00
13164;DHT22;6647;53.688;10.746;2022-07-24T00:57:46;14.30;1.00
13164;DHT22;6647;53.688;10.746;2022-07-24T00:59:09;14.30;1.00
13164;DHT22;6647;53.688;10.746;2022-07-24T01:00:31;14.30;1.00
13164;DHT22;6647;53.688;10.746;2022-07-24T01:01:52;14.30;1.00
13164;DHT22;6647;53.688;10.746;2022-07-24T01:03:12;14.30;1.00
13164;DHT22;6647;53.688;10.746;2022-07-24T01:04:33;14.30;1.00
13164;DHT22;6647;53.688;10.746;2022-07-24T01:05:54;14.30;1.00
13164;DHT22;6647;53.688;10.746;2022-07-24T01:07:15;14.30;1.00
13164;DHT22;6647;53.688;10.746;2022-07-24T01:08:37;14.30;1.00
13164;DHT22;6647;53.688;10.746;2022-07-24T01:09:58;14.30;1.00
13164;DHT22;6647;53.688;10.746;2022-07-24T01:11:19;14.30;1.00
13164;DHT22;6647;53.688;10.746;2022-07-24T01:12:41;14.30;1.00
13164;DHT22;6647;53.688;10.746;2022-07-24T01:14:02;14.30;1.00
13164;DHT22;6647;53.688;10.746;2022-07-24T01:15:23;14.30;1.00
13164;DHT22;6647;53.688;10.746;2022-07-24T01:16:45;14.30;1.00
13164;DHT22;6647;53.688;10.746;2022-07-24T01:18:06;14.20;1.00
13164;DHT22;6647;53.688;10.746;2022-07-24T01:19:27;14.20;1.00
13164;DHT22;6647;53.688;10.746;2022-07-24T01:20:48;14.20;1.00
13164;DHT22;6647;53.688;10.746;2022-07-24T01:22:10;14.20;1.00
13164;DHT22;6647;53.688;10.746;2022-07-24T01:23:31;14.20;1.00
13164;DHT22;6647;53.688;10.746;2022-07-24T01:24:53;14.10;1.00
13164;DHT22;6647;53.688;10.746;2022-07-24T01:26:14;14.20;1.00
13164;DHT22;6647;53.688;10.746;2022-07-24T01:27:35;14.20;1.00
13164;DHT22;6647;53.688;10.746;2022-07-24T01:28:56;14.20;1.00
13164;DHT22;6647;53.688;10.746;2022-07-24T01:30:17;14.10;1.00
13164;DHT22;6647;53.688;10.746;2022-07-24T01:31:37;14.10;1.00
13164;DHT22;6647;53.688;10.746;2022-07-24T01:32:59;14.10;1.00
13164;DHT22;6647;53.688;10.746;2022-07-24T01:34:20;14.10;1.00
13164;DHT22;6647;53.688;10.746;2022-07-24T01:35:42;14.10;1.00
13164;DHT22;6647;53.688;10.746;2022-07-24T01:37:03;14.10;1.00
13164;DHT22;6647;53.688;10.746;2022-07-24T01:38:24;14.10;1.00
13164;DHT22;6647;53.688;10.746;2022-07-24T01:39:45;14.10;1.00
13164;DHT22;6647;53.688;10.746;2022-07-24T01:41:05;14.10;1.00
13164;DHT22;6647;53.688;10.746;2022-07-24T01:42:26;14.10;1.00
13164;DHT22;6647;53.688;10.746;2022-07-24T01:43:47;14.00;1.00
13164;DHT22;6647;53.688;10.746;2022-07-24T01:45:09;14.00;1.00
13164;DHT22;6647;53.688;10.746;2022-07-24T01:46:30;14.00;1.00
13164;DHT22;6647;53.688;10.746;2022-07-24T01:47:51;13.90;1.00
13164;DHT22;6647;53.688;10.746;2022-07-24T01:49:12;13.90;1.00
13164;DHT22;6647;53.688;10.746;2022-07-24T01:50:33;13.90;1.00
13164;DHT22;6647;53.688;10.746;2022-07-24T01:51:54;13.80;1.00
13164;DHT22;6647;53.688;10.746;2022-07-24T01:53:16;13.80;1.00
13164;DHT22;6647;53.688;10.746;2022-07-24T01:54:37;13.80;1.00
13164;DHT22;6647;53.688;10.746;2022-07-24T01:55:57;13.80;1.00
13164;DHT22;6647;53.688;10.746;2022-07-24T01:57:18;13.80;1.00
13164;DHT22;6647;53.688;10.746;2022-07-24T01:58:39;13.80;1.00
13164;DHT22;6647;53.688;10.746;2022-07-24T02:00:01;13.80;1.00
13164;DHT22;6647;53.688;10.746;2022-07-24T02:01:22;13.70;1.00
13164;DHT22;6647;53.688;10.746;2022-07-24T02:02:44;13.70;1.00
13164;DHT22;6647;53.688;10.746;2022-07-24T02:04:05;13.70;1.00
13164;DHT22;6647;53.688;10.746;2022-07-24T02:05:26;13.60;1.00
13164;DHT22;6647;53.688;10.746;2022-07-24T02:06:47;13.60;1.00
13164;DHT22;6647;53.688;10.746;2022-07-24T02:08:08;13.60;1.00
13164;DHT22;6647;53.688;10.746;2022-07-24T02:09:29;13.60;1.00
13164;DHT22;6647;53.688;10.746;2022-07-24T02:10:50;13.60;1.00
13164;DHT22;6647;53.688;10.746;2022-07-24T02:12:11;13.60;1.00
13164;DHT22;6647;53.688;10.746;2022-07-24T02:13:32;13.60;1.00
13164;DHT22;6647;53.688;10.746;2022-07-24T02:14:53;13.60;1.00
13164;DHT22;6647;53.688;10.746;2022-07-24T02:16:14;13.60;1.00
13164;DHT22;6647;53.688;10.746;2022-07-24T02:17:34;13.60;1.00
13164;DHT22;6647;53.688;10.746;2022-07-24T02:18:56;13.60;1.00
13164;DHT22;6647;53.688;10.746;2022-07-24T02:20:18;13.60;1.00
13164;DHT22;6647;53.688;10.746;2022-07-24T02:21:39;13.70;1.00
13164;DHT22;6647;53.688;10.746;2022-07-24T02:22:59;13.70;1.00
13164;DHT22;6647;53.688;10.746;2022-07-24T02:24:20;13.60;1.00
13164;DHT22;6647;53.688;10.746;2022-07-24T02:25:41;13.60;1.00
13164;DHT22;6647;53.688;10.746;2022-07-24T02:27:02;13.60;1.00
13164;DHT22;6647;53.688;10.746;2022-07-24T02:28:23;13.60;1.00
13164;DHT22;6647;53.688;10.746;2022-07-24T02:29:44;13.60;1.00
13164;DHT22;6647;53.688;10.746;2022-07-24T02:31:05;13.60;1.00
13164;DHT22;6647;53.688;10.746;2022-07-24T02:32:26;13.60;1.00
13164;DHT22;6647;53.688;10.746;2022-07-24T02:33:47;13.60;1.00
13164;DHT22;6647;53.688;10.746;2022-07-24T02:35:09;13.60;1.00
13164;DHT22;6647;53.688;10.746;2022-07-24T02:36:30;13.60;1.00
13164;DHT22;6647;53.688;10.746;2022-07-24T02:37:51;13.60;1.00
13164;DHT22;6647;53.688;10.746;2022-07-24T02:39:12;13.60;1.00
13164;DHT22;6647;53.688;10.746;2022-07-24T02:40:33;13.60;1.00
13164;DHT22;6647;53.688;10.746;2022-07-24T02:41:54;13.50;1.00
13164;DHT22;6647;53.688;10.746;2022-07-24T02:43:14;13.50;1.00
13164;DHT22;6647;53.688;10.746;2022-07-24T02:44:35;13.50;1.00
13164;DHT22;6647;53.688;10.746;2022-07-24T02:45:56;13.50;1.00
13164;DHT22;6647;53.688;10.746;2022-07-24T02:47:17;13.40;1.00
13164;DHT22;6647;53.688;10.746;2022-07-24T02:48:38;13.40;1.00
13164;DHT22;6647;53.688;10.746;2022-07-24T02:49:59;13.40;1.00
13164;DHT22;6647;53.688;10.746;2022-07-24T02:51:20;13.40;1.00
13164;DHT22;6647;53.688;10.746;2022-07-24T02:52:41;13.40;1.00
13164;DHT22;6647;53.688;10.746;2022-07-24T02:54:02;13.40;1.00
13164;DHT22;6647;53.688;10.746;2022-07-24T02:55:22;13.40;1.00
13164;DHT22;6647;53.688;10.746;2022-07-24T02:56:43;13.40;1.00
13164;DHT22;6647;53.688;10.746;2022-07-24T02:58:04;13.40;1.00
13164;DHT22;6647;53.688;10.746;2022-07-24T02:59:25;13.40;1.00
13164;DHT22;6647;53.688;10.746;2022-07-24T03:00:46;13.40;1.00
13164;DHT22;6647;53.688;10.746;2022-07-24T03:02:07;13.40;1.00
13164;DHT22;6647;53.688;10.746;2022-07-24T03:03:28;13.40;1.00
13164;DHT22;6647;53.688;10.746;2022-07-24T03:04:48;13.40;1.00
13164;DHT22;6647;53.688;10.746;2022-07-24T03:06:09;13.40;1.00
13164;DHT22;6647;53.688;10.746;2022-07-24T03:07:30;13.40;1.00
13164;DHT22;6647;53.688;10.746;2022-07-24T03:08:51;13.40;1.00
13164;DHT22;6647;53.688;10.746;2022-07-24T03:10:13;13.40;1.00
13164;DHT22;6647;53.688;10.746;2022-07-24T03:11:34;13.40;1.00
13164;DHT22;6647;53.688;10.746;2022-07-24T03:12:55;13.40;1.00
13164;DHT22;6647;53.688;10.746;2022-07-24T03:14:15;13.40;1.00
13164;DHT22;6647;53.688;10.746;2022-07-24T03:15:36;13.40;1.00
13164;DHT22;6647;53.688;10.746;2022-07-24T03:16:57;13.40;1.00
13164;DHT22;6647;53.688;10.746;2022-07-24T03:18:18;13.40;1.00
13164;DHT22;6647;53.688;10.746;2022-07-24T03:19:39;13.40;1.00
13164;DHT22;6647;53.688;10.746;2022-07-24T03:21:00;13.30;1.00
13164;DHT22;6647;53.688;10.746;2022-07-24T03:22:20;13.30;1.00
13164;DHT22;6647;53.688;10.746;2022-07-24T03:23:41;13.30;1.00
13164;DHT22;6647;53.688;10.746;2022-07-24T03:25:02;13.30;1.00
13164;DHT22;6647;53.688;10.746;2022-07-24T03:26:24;13.30;1.00
13164;DHT22;6647;53.688;10.746;2022-07-24T03:27:45;13.30;1.00
13164;DHT22;6647;53.688;10.746;2022-07-24T03:29:09;13.30;1.00
13164;DHT22;6647;53.688;10.746;2022-07-24T03:30:30;13.30;1.00
13164;DHT22;6647;53.688;10.746;2022-07-24T03:31:51;13.30;1.00
13164;DHT22;6647;53.688;10.746;2022-07-24T03:33:12;13.30;1.00
13164;DHT22;6647;53.688;10.746;2022-07-24T03:34:33;13.30;1.00
13164;DHT22;6647;53.688;10.746;2022-07-24T03:35:54;13.30;1.00
13164;DHT22;6647;53.688;10.746;2022-07-24T03:37:15;13.30;1.00
13164;DHT22;6647;53.688;10.746;2022-07-24T03:38:36;13.30;1.00
13164;DHT22;6647;53.688;10.746;2022-07-24T03:39:57;13.30;1.00
13164;DHT22;6647;53.688;10.746;2022-07-24T03:41:18;13.30;1.00
13164;DHT22;6647;53.688;10.746;2022-07-24T03:42:39;13.30;1.00
13164;DHT22;6647;53.688;10.746;2022-07-24T03:44:00;13.30;1.00
13164;DHT22;6647;53.688;10.746;2022-07-24T03:45:21;13.30;1.00
13164;DHT22;6647;53.688;10.746;2022-07-24T03:46:42;13.40;1.00
13164;DHT22;6647;53.688;10.746;2022-07-24T03:48:03;13.40;1.00
13164;DHT22;6647;53.688;10.746;2022-07-24T03:49:24;13.40;1.00
13164;DHT22;6647;53.688;10.746;2022-07-24T03:50:45;13.40;1.00
13164;DHT22;6647;53.688;10.746;2022-07-24T03:52:07;13.40;1.00
13164;DHT22;6647;53.688;10.746;2022-07-24T03:53:28;13.40;1.00
13164;DHT22;6647;53.688;10.746;2022-07-24T03:54:49;13.40;1.00
13164;DHT22;6647;53.688;10.746;2022-07-24T03:56:10;13.40;1.00
13164;DHT22;6647;53.688;10.746;2022-07-24T03:57:31;13.40;1.00
13164;DHT22;6647;53.688;10.746;2022-07-24T03:58:53;13.40;1.00
13164;DHT22;6647;53.688;10.746;2022-07-24T04:00:14;13.40;1.00
13164;DHT22;6647;53.688;10.746;2022-07-24T04:01:35;13.40;1.00
13164;DHT22;6647;53.688;10.746;2022-07-24T04:02:56;13.40;1.00
13164;DHT22;6647;53.688;10.746;2022-07-24T04:04:17;13.40;1.00
13164;DHT22;6647;53.688;10.746;2022-07-24T04:05:37;13.40;1.00
13164;DHT22;6647;53.688;10.746;2022-07-24T04:06:58;13.40;1.00
13164;DHT22;6647;53.688;10.746;2022-07-24T04:08:19;13.40;1.00
13164;DHT22;6647;53.688;10.746;2022-07-24T04:09:40;13.40;1.00
13164;DHT22;6647;53.688;10.746;2022-07-24T04:11:01;13.40;1.00
13164;DHT22;6647;53.688;10.746;2022-07-24T04:12:22;13.40;1.00
13164;DHT22;6647;53.688;10.746;2022-07-24T04:13:43;13.40;1.00
13164;DHT22;6647;53.688;10.746;2022-07-24T04:15:04;13.40;1.00
13164;DHT22;6647;53.688;10.746;2022-07-24T04:16:25;13.50;1.00
13164;DHT22;6647;53.688;10.746;2022-07-24T04:17:46;13.50;1.00
13164;DHT22;6647;53.688;10.746;2022-07-24T04:19:07;13.50;1.00
13164;DHT22;6647;53.688;10.746;2022-07-24T04:20:28;13.50;1.00
13164;DHT22;6647;53.688;10.746;2022-07-24T04:21:49;13.50;1.00
13164;DHT22;6647;53.688;10.746;2022-07-24T04:23:10;13.50;1.00
13164;DHT22;6647;53.688;10.746;2022-07-24T04:24:31;13.50;1.00
13164;DHT22;6647;53.688;10.746;2022-07-24T04:25:52;13.50;1.00
13164;DHT22;6647;53.688;10.746;2022-07-24T04:27:13;13.50;1.00
13164;DHT22;6647;53.688;10.746;2022-07-24T04:28:34;13.50;1.00
13164;DHT22;6647;53.688;10.746;2022-07-24T04:29:55;13.50;1.00
13164;DHT22;6647;53.688;10.746;2022-07-24T04:31:16;13.50;1.00
13164;DHT22;6647;53.688;10.746;2022-07-24T04:32:37;13.50;1.00
13164;DHT22;6647;53.688;10.746;2022-07-24T04:33:58;13.50;1.00
13164;DHT22;6647;53.688;10.746;2022-07-24T04:35:19;13.50;1.00
13164;DHT22;6647;53.688;10.746;2022-07-24T04:36:40;13.50;1.00
13164;DHT22;6647;53.688;10.746;2022-07-24T04:38:01;13.50;1.00
13164;DHT22;6647;53.688;10.746;2022-07-24T04:39:22;13.50;1.00
13164;DHT22;6647;53.688;10.746;2022-07-24T04:40:43;13.50;1.00
13164;DHT22;6647;53.688;10.746;2022-07-24T04:42:04;13.50;1.00
13164;DHT22;6647;53.688;10.746;2022-07-24T04:43:25;13.50;1.00
13164;DHT22;6647;53.688;10.746;2022-07-24T04:44:46;13.50;1.00
13164;DHT22;6647;53.688;10.746;2022-07-24T04:46:07;13.50;1.00
13164;DHT22;6647;53.688;10.746;2022-07-24T04:47:28;13.60;1.00
13164;DHT22;6647;53.688;10.746;2022-07-24T04:48:49;13.50;1.00
13164;DHT22;6647;53.688;10.746;2022-07-24T04:50:10;13.50;1.00
13164;DHT22;6647;53.688;10.746;2022-07-24T04:51:31;13.50;1.00
13164;DHT22;6647;53.688;10.746;2022-07-24T04:52:52;13.50;1.00
13164;DHT22;6647;53.688;10.746;2022-07-24T04:54:13;13.50;1.00
13164;DHT22;6647;53.688;10.746;2022-07-24T04:55:34;13.50;1.00
13164;DHT22;6647;53.688;10.746;2022-07-24T04:56:54;13.50;1.00
13164;DHT22;6647;53.688;10.746;2022-07-24T04:58:15;13.50;1.00
13164;DHT22;6647;53.688;10.746;2022-07-24T04:59:36;13.50;1.00
13164;DHT22;6647;53.688;10.746;2022-07-24T05:00:57;13.60;1.00
13164;DHT22;6647;53.688;10.746;2022-07-24T05:02:18;13.60;1.00
13164;DHT22;6647;53.688;10.746;2022-07-24T05:03:40;13.60;1.00
13164;DHT22;6647;53.688;10.746;2022-07-24T05:05:01;13.70;1.00
13164;DHT22;6647;53.688;10.746;2022-07-24T05:06:23;13.70;1.00
13164;DHT22;6647;53.688;10.746;2022-07-24T05:07:44;13.70;1.00
13164;DHT22;6647;53.688;10.746;2022-07-24T05:09:05;13.70;1.00
13164;DHT22;6647;53.688;10.746;2022-07-24T05:10:25;13.70;1.00
13164;DHT22;6647;53.688;10.746;2022-07-24T05:11:46;13.70;1.00
13164;DHT22;6647;53.688;10.746;2022-07-24T05:13:07;13.80;1.00
13164;DHT22;6647;53.688;10.746;2022-07-24T05:14:28;13.70;1.00
13164;DHT22;6647;53.688;10.746;2022-07-24T05:15:49;13.80;1.00
13164;DHT22;6647;53.688;10.746;2022-07-24T05:17:10;13.80;1.00
13164;DHT22;6647;53.688;10.746;2022-07-24T05:18:31;13.80;1.00
13164;DHT22;6647;53.688;10.746;2022-07-24T05:19:52;13.80;1.00
13164;DHT22;6647;53.688;10.746;2022-07-24T05:21:13;13.90;1.00
13164;DHT22;6647;53.688;10.746;2022-07-24T05:22:35;13.90;1.00
13164;DHT22;6647;53.688;10.746;2022-07-24T05:23:56;13.90;1.00
13164;DHT22;6647;53.688;10.746;2022-07-24T05:25:17;13.90;1.00
13164;DHT22;6647;53.688;10.746;2022-07-24T05:26:38;14.00;1.00
13164;DHT22;6647;53.688;10.746;2022-07-24T05:27:58;14.00;1.00
13164;DHT22;6647;53.688;10.746;2022-07-24T05:29:19;14.00;1.00
13164;DHT22;6647;53.688;10.746;2022-07-24T05:30:40;14.00;1.00
13164;DHT22;6647;53.688;10.746;2022-07-24T05:32:01;14.10;1.00
13164;DHT22;6647;53.688;10.746;2022-07-24T05:33:22;14.10;1.00
13164;DHT22;6647;53.688;10.746;2022-07-24T05:34:43;14.10;1.00
13164;DHT22;6647;53.688;10.746;2022-07-24T05:36:04;14.20;1.00
13164;DHT22;6647;53.688;10.746;2022-07-24T05:37:25;14.20;1.00
13164;DHT22;6647;53.688;10.746;2022-07-24T05:38:47;14.20;1.00
13164;DHT22;6647;53.688;10.746;2022-07-24T05:40:08;14.30;1.00
13164;DHT22;6647;53.688;10.746;2022-07-24T05:41:29;14.30;1.00
13164;DHT22;6647;53.688;10.746;2022-07-24T05:42:50;14.40;1.00
13164;DHT22;6647;53.688;10.746;2022-07-24T05:44:11;14.40;1.00
13164;DHT22;6647;53.688;10.746;2022-07-24T05:45:32;14.40;1.00
13164;DHT22;6647;53.688;10.746;2022-07-24T05:46:55;14.50;1.00
13164;DHT22;6647;53.688;10.746;2022-07-24T05:48:16;14.50;1.00
13164;DHT22;6647;53.688;10.746;2022-07-24T05:49:37;14.60;1.00
13164;DHT22;6647;53.688;10.746;2022-07-24T05:50:58;14.60;1.00
13164;DHT22;6647;53.688;10.746;2022-07-24T05:52:19;14.70;1.00
13164;DHT22;6647;53.688;10.746;2022-07-24T05:53:40;14.70;1.00
13164;DHT22;6647;53.688;10.746;2022-07-24T05:55:02;14.70;1.00
13164;DHT22;6647;53.688;10.746;2022-07-24T05:56:23;14.80;1.00
13164;DHT22;6647;53.688;10.746;2022-07-24T05:57:45;14.80;1.00
13164;DHT22;6647;53.688;10.746;2022-07-24T05:59:06;14.80;1.00
13164;DHT22;6647;53.688;10.746;2022-07-24T06:00:27;14.90;1.00
13164;DHT22;6647;53.688;10.746;2022-07-24T06:01:48;15.00;1.00
13164;DHT22;6647;53.688;10.746;2022-07-24T06:03:09;15.00;1.00
13164;DHT22;6647;53.688;10.746;2022-07-24T06:04:30;15.00;1.00
13164;DHT22;6647;53.688;10.746;2022-07-24T06:05:51;15.10;1.00
13164;DHT22;6647;53.688;10.746;2022-07-24T06:07:12;15.20;1.00
13164;DHT22;6647;53.688;10.746;2022-07-24T06:08:33;15.20;1.00
13164;DHT22;6647;53.688;10.746;2022-07-24T06:09:54;15.20;1.00
13164;DHT22;6647;53.688;10.746;2022-07-24T06:11:14;15.30;1.00
13164;DHT22;6647;53.688;10.746;2022-07-24T06:12:35;15.30;1.00
13164;DHT22;6647;53.688;10.746;2022-07-24T06:13:56;15.40;1.00
13164;DHT22;6647;53.688;10.746;2022-07-24T06:15:17;15.50;1.00
13164;DHT22;6647;53.688;10.746;2022-07-24T06:16:38;15.50;1.00
13164;DHT22;6647;53.688;10.746;2022-07-24T06:17:59;15.60;1.00
13164;DHT22;6647;53.688;10.746;2022-07-24T06:19:20;15.70;1.00
13164;DHT22;6647;53.688;10.746;2022-07-24T06:20:41;15.70;1.00
13164;DHT22;6647;53.688;10.746;2022-07-24T06:22:02;15.80;1.00
13164;DHT22;6647;53.688;10.746;2022-07-24T06:23:22;15.80;1.00
13164;DHT22;6647;53.688;10.746;2022-07-24T06:24:43;15.90;1.00
13164;DHT22;6647;53.688;10.746;2022-07-24T06:26:04;15.90;1.00
13164;DHT22;6647;53.688;10.746;2022-07-24T06:27:25;15.90;1.00
13164;DHT22;6647;53.688;10.746;2022-07-24T06:28:46;16.00;1.00
13164;DHT22;6647;53.688;10.746;2022-07-24T06:30:15;16.00;1.00
13164;DHT22;6647;53.688;10.746;2022-07-24T06:31:36;16.10;1.00
13164;DHT22;6647;53.688;10.746;2022-07-24T06:32:58;16.10;1.00
13164;DHT22;6647;53.688;10.746;2022-07-24T06:34:19;16.10;1.00
13164;DHT22;6647;53.688;10.746;2022-07-24T06:35:44;16.20;1.00
13164;DHT22;6647;53.688;10.746;2022-07-24T06:37:05;16.30;1.00
13164;DHT22;6647;53.688;10.746;2022-07-24T06:38:26;16.30;1.00
13164;DHT22;6647;53.688;10.746;2022-07-24T06:39:47;16.30;1.00
13164;DHT22;6647;53.688;10.746;2022-07-24T06:41:08;16.40;1.00
13164;DHT22;6647;53.688;10.746;2022-07-24T06:42:28;16.40;1.00
13164;DHT22;6647;53.688;10.746;2022-07-24T06:43:49;16.50;1.00
13164;DHT22;6647;53.688;10.746;2022-07-24T06:45:10;16.50;1.00
13164;DHT22;6647;53.688;10.746;2022-07-24T06:46:31;16.50;1.00
13164;DHT22;6647;53.688;10.746;2022-07-24T06:47:52;16.50;1.00
13164;DHT22;6647;53.688;10.746;2022-07-24T06:49:13;16.60;1.00
13164;DHT22;6647;53.688;10.746;2022-07-24T06:50:34;16.60;1.00
13164;DHT22;6647;53.688;10.746;2022-07-24T06:51:55;16.60;1.00
13164;DHT22;6647;53.688;10.746;2022-07-24T06:53:16;16.70;1.00
13164;DHT22;6647;53.688;10.746;2022-07-24T06:54:37;16.70;1.00
13164;DHT22;6647;53.688;10.746;2022-07-24T06:55:58;16.70;1.00
13164;DHT22;6647;53.688;10.746;2022-07-24T06:57:19;16.80;1.00
13164;DHT22;6647;53.688;10.746;2022-07-24T06:58:40;16.80;1.00
13164;DHT22;6647;53.688;10.746;2022-07-24T07:00:01;16.80;1.00
13164;DHT22;6647;53.688;10.746;2022-07-24T07:01:22;16.90;1.00
13164;DHT22;6647;53.688;10.746;2022-07-24T07:02:46;17.00;1.00
13164;DHT22;6647;53.688;10.746;2022-07-24T07:04:07;17.00;1.00
13164;DHT22;6647;53.688;10.746;2022-07-24T07:05:28;17.00;1.00
13164;DHT22;6647;53.688;10.746;2022-07-24T07:06:49;17.10;1.00
13164;DHT22;6647;53.688;10.746;2022-07-24T07:08:10;17.10;1.00
13164;DHT22;6647;53.688;10.746;2022-07-24T07:09:31;17.20;1.00
13164;DHT22;6647;53.688;10.746;2022-07-24T07:10:52;17.20;1.00
13164;DHT22;6647;53.688;10.746;2022-07-24T07:12:13;17.30;1.00
13164;DHT22;6647;53.688;10.746;2022-07-24T07:13:34;17.30;1.00
13164;DHT22;6647;53.688;10.746;2022-07-24T07:14:54;17.30;1.00
13164;DHT22;6647;53.688;10.746;2022-07-24T07:16:15;17.40;1.00
13164;DHT22;6647;53.688;10.746;2022-07-24T07:17:42;17.40;1.00
13164;DHT22;6647;53.688;10.746;2022-07-24T07:19:03;17.40;1.00
13164;DHT22;6647;53.688;10.746;2022-07-24T07:20:24;17.40;1.00
13164;DHT22;6647;53.688;10.746;2022-07-24T07:21:45;17.50;1.00
13164;DHT22;6647;53.688;10.746;2022-07-24T07:23:06;17.60;1.00
13164;DHT22;6647;53.688;10.746;2022-07-24T07:24:27;17.60;1.00
13164;DHT22;6647;53.688;10.746;2022-07-24T07:25:48;17.60;1.00
13164;DHT22;6647;53.688;10.746;2022-07-24T07:27:09;17.70;1.00
13164;DHT22;6647;53.688;10.746;2022-07-24T07:28:30;17.70;1.00
13164;DHT22;6647;53.688;10.746;2022-07-24T07:29:51;17.70;1.00
13164;DHT22;6647;53.688;10.746;2022-07-24T07:31:12;17.80;1.00
13164;DHT22;6647;53.688;10.746;2022-07-24T07:32:33;17.80;1.00
13164;DHT22;6647;53.688;10.746;2022-07-24T07:33:54;17.80;1.00
13164;DHT22;6647;53.688;10.746;2022-07-24T07:35:15;17.90;1.00
13164;DHT22;6647;53.688;10.746;2022-07-24T07:36:36;17.90;1.00
13164;DHT22;6647;53.688;10.746;2022-07-24T07:37:57;18.00;1.00
13164;DHT22;6647;53.688;10.746;2022-07-24T07:39:18;18.00;1.00
13164;DHT22;6647;53.688;10.746;2022-07-24T07:40:39;18.10;1.00
13164;DHT22;6647;53.688;10.746;2022-07-24T07:42:00;18.10;1.00
13164;DHT22;6647;53.688;10.746;2022-07-24T07:43:21;18.20;1.00
13164;DHT22;6647;53.688;10.746;2022-07-24T07:44:42;18.30;1.00
13164;DHT22;6647;53.688;10.746;2022-07-24T07:46:03;18.30;1.00
13164;DHT22;6647;53.688;10.746;2022-07-24T07:47:24;18.30;1.00
13164;DHT22;6647;53.688;10.746;2022-07-24T07:48:44;18.40;1.00
13164;DHT22;6647;53.688;10.746;2022-07-24T07:50:06;18.40;1.00
13164;DHT22;6647;53.688;10.746;2022-07-24T07:51:27;18.50;1.00
13164;DHT22;6647;53.688;10.746;2022-07-24T07:52:48;18.50;1.00
13164;DHT22;6647;53.688;10.746;2022-07-24T07:54:09;18.60;1.00
13164;DHT22;6647;53.688;10.746;2022-07-24T07:55:29;18.60;1.00
13164;DHT22;6647;53.688;10.746;2022-07-24T07:56:50;18.60;1.00
13164;DHT22;6647;53.688;10.746;2022-07-24T07:58:11;18.70;1.00
13164;DHT22;6647;53.688;10.746;2022-07-24T07:59:32;18.70;1.00
13164;DHT22;6647;53.688;10.746;2022-07-24T08:00:53;18.80;1.00
13164;DHT22;6647;53.688;10.746;2022-07-24T08:02:14;18.80;1.00
13164;DHT22;6647;53.688;10.746;2022-07-24T08:03:36;18.90;1.00
13164;DHT22;6647;53.688;10.746;2022-07-24T08:04:57;19.00;1.00
13164;DHT22;6647;53.688;10.746;2022-07-24T08:06:18;19.10;1.00
13164;DHT22;6647;53.688;10.746;2022-07-24T08:07:39;19.20;1.00
13164;DHT22;6647;53.688;10.746;2022-07-24T08:09:00;19.20;1.00
13164;DHT22;6647;53.688;10.746;2022-07-24T08:10:21;19.20;1.00
13164;DHT22;6647;53.688;10.746;2022-07-24T08:11:42;19.20;1.00
13164;DHT22;6647;53.688;10.746;2022-07-24T08:13:03;19.30;1.00
13164;DHT22;6647;53.688;10.746;2022-07-24T08:14:24;19.40;1.00
13164;DHT22;6647;53.688;10.746;2022-07-24T08:15:45;19.40;1.00
13164;DHT22;6647;53.688;10.746;2022-07-24T08:17:06;19.50;1.00
13164;DHT22;6647;53.688;10.746;2022-07-24T08:18:27;19.40;1.00
13164;DHT22;6647;53.688;10.746;2022-07-24T08:19:48;19.50;1.00
13164;DHT22;6647;53.688;10.746;2022-07-24T08:21:09;19.50;1.00
13164;DHT22;6647;53.688;10.746;2022-07-24T08:22:29;19.60;1.00
13164;DHT22;6647;53.688;10.746;2022-07-24T08:33:12;19.90;1.00
13164;DHT22;6647;53.688;10.746;2022-07-24T08:35:06;20.00;1.00
13164;DHT22;6647;53.688;10.746;2022-07-24T08:36:30;20.10;1.00
13164;DHT22;6647;53.688;10.746;2022-07-24T08:37:51;20.10;1.00
13164;DHT22;6647;53.688;10.746;2022-07-24T08:39:13;20.10;1.00
13164;DHT22;6647;53.688;10.746;2022-07-24T08:40:37;20.20;1.00
13164;DHT22;6647;53.688;10.746;2022-07-24T08:41:58;20.30;1.00
13164;DHT22;6647;53.688;10.746;2022-07-24T08:43:19;20.40;1.00
13164;DHT22;6647;53.688;10.746;2022-07-24T08:44:40;20.50;1.00
13164;DHT22;6647;53.688;10.746;2022-07-24T08:46:02;20.50;1.00
13164;DHT22;6647;53.688;10.746;2022-07-24T08:47:25;20.60;1.00
13164;DHT22;6647;53.688;10.746;2022-07-24T08:48:46;20.70;1.00
13164;DHT22;6647;53.688;10.746;2022-07-24T08:50:08;20.70;1.00